Time;durP1;ratioP1;P1;durP2;ratioP2;P2;SDS_P1;SDS_P2;PMS_P1;PMS_P2;Temp;Humidity;BMP_temperature;BMP_pressure;BME280_temperature;BME280_humidity;BME280_pressure;Samples;Min_cycle;Max_cycle;Signal;HPM_P1;HPM_P2
2021/10/02 00:31:21;;;;;;;17.00;9.10;;;7.20;99.90;;;;;;4358691;28;657770;-66
2021/10/02 00:34:27;;;;;;;16.23;9.53;;;7.20;99.90;;;;;;4388708;28;656520;-66
2021/10/02 00:37:41;;;;;;;16.53;8.57;;;7.20;99.90;;;;;;4389541;28;656627;-66
2021/10/02 00:46:46;;;;;;;20.87;7.87;;;7.10;99.90;;;;;;4365082;28;657432;-67
2021/10/02 00:49:35;;;;;;;16.33;7.87;;;7.00;99.90;;;;;;4408728;28;657169;-66
2021/10/02 00:52:22;;;;;;;15.63;8.73;;;7.00;99.90;;;;;;4388336;28;657481;-66
2021/10/02 00:55:10;;;;;;;14.50;7.93;;;7.00;99.90;;;;;;4412358;28;656503;-66
2021/10/02 00:57:58;;;;;;;16.53;8.03;;;6.90;99.90;;;;;;4390080;28;657305;-66
2021/10/02 01:00:46;;;;;;;11.47;7.10;;;6.90;99.90;;;;;;4382969;28;658042;-66
2021/10/02 01:03:42;;;;;;;12.70;7.63;;;6.90;99.90;;;;;;4407776;28;656576;-66
2021/10/02 01:06:48;;;;;;;13.47;7.43;;;6.90;99.90;;;;;;4385083;28;656827;-66
2021/10/02 01:09:45;;;;;;;14.53;7.27;;;6.90;99.90;;;;;;4379431;28;656775;-67
2021/10/02 01:12:37;;;;;;;15.23;8.60;;;6.80;99.90;;;;;;4382960;28;657245;-66
2021/10/02 01:15:31;;;;;;;13.57;7.60;;;6.80;99.90;;;;;;4395642;28;657268;-66
2021/10/02 01:18:25;;;;;;;13.43;7.73;;;6.80;99.90;;;;;;4375569;28;656645;-66
2021/10/02 01:21:29;;;;;;;11.30;7.13;;;6.80;99.90;;;;;;4348316;28;657264;-66
2021/10/02 01:24:28;;;;;;;12.10;7.30;;;6.80;99.90;;;;;;4375831;28;656871;-67
2021/10/02 01:27:39;;;;;;;11.65;7.07;;;6.80;99.90;;;;;;4400174;28;656703;-67
2021/10/02 01:30:49;;;;;;;11.93;6.70;;;6.70;99.90;;;;;;4368784;28;657239;-67
2021/10/02 01:33:43;;;;;;;11.57;6.80;;;6.70;99.90;;;;;;4366658;28;656695;-67
2021/10/02 01:36:42;;;;;;;12.60;6.50;;;6.80;99.90;;;;;;4406461;28;656576;-67
2021/10/02 01:48:47;;;;;;;10.67;6.50;;;6.80;99.90;;;;;;4373617;28;656756;-66
2021/10/02 01:51:34;;;;;;;12.50;6.57;;;6.80;99.90;;;;;;4410749;28;656190;-67
2021/10/02 01:54:22;;;;;;;13.27;6.33;;;6.80;99.90;;;;;;4403456;28;656529;-67
2021/10/02 01:57:09;;;;;;;10.60;6.23;;;6.80;99.90;;;;;;4414536;28;656994;-67
2021/10/02 01:59:57;;;;;;;12.27;6.77;;;6.80;99.90;;;;;;4385013;28;658623;-66
2021/10/02 02:02:49;;;;;;;12.60;6.77;;;6.80;99.90;;;;;;4412075;28;656993;-67
2021/10/02 02:05:36;;;;;;;11.75;6.80;;;6.80;99.90;;;;;;4388746;28;656363;-67
2021/10/02 02:08:25;;;;;;;10.33;6.53;;;6.90;99.90;;;;;;4415083;28;656886;-66
2021/10/02 02:11:13;;;;;;;13.20;6.22;;;6.90;99.90;;;;;;4395219;28;659071;-67
2021/10/02 02:14:00;;;;;;;11.37;6.10;;;6.80;99.90;;;;;;4412724;28;656945;-67
2021/10/02 02:16:48;;;;;;;10.90;5.70;;;6.80;99.90;;;;;;4414481;28;657537;-68
2021/10/02 02:19:37;;;;;;;10.50;5.87;;;6.80;99.90;;;;;;4393527;28;656409;-67
2021/10/02 02:22:24;;;;;;;9.67;6.00;;;6.90;99.90;;;;;;4414391;28;656373;-67
2021/10/02 02:25:12;;;;;;;12.80;5.97;;;6.90;99.90;;;;;;4396909;28;656412;-67
2021/10/02 02:27:59;;;;;;;12.10;6.10;;;6.90;99.90;;;;;;4414083;28;656811;-66
2021/10/02 02:30:47;;;;;;;8.33;5.60;;;6.90;99.90;;;;;;4391410;28;658017;-67
2021/10/02 02:33:35;;;;;;;9.30;5.70;;;6.90;99.90;;;;;;4418627;28;655479;-67
2021/10/02 02:36:24;;;;;;;8.53;5.60;;;6.90;99.90;;;;;;4391359;28;656554;-67
2021/10/02 02:39:11;;;;;;;9.53;5.97;;;6.90;99.90;;;;;;4395830;28;656132;-67
2021/10/02 02:41:59;;;;;;;11.53;6.20;;;6.90;99.90;;;;;;4415214;28;655786;-67
2021/10/02 02:44:47;;;;;;;11.60;6.30;;;6.90;99.90;;;;;;4395507;28;656743;-67
2021/10/02 02:47:34;;;;;;;9.17;6.10;;;6.90;99.90;;;;;;4414627;28;656562;-67
2021/10/02 02:50:25;;;;;;;10.03;5.87;;;6.90;99.90;;;;;;4390352;28;655481;-67
2021/10/02 02:53:21;;;;;;;10.00;5.83;;;6.90;99.90;;;;;;4395169;28;657943;-66
2021/10/02 02:56:10;;;;;;;9.33;5.70;;;6.90;99.90;;;;;;4390706;28;657218;-66
2021/10/02 02:59:01;;;;;;;9.03;5.53;;;6.80;99.90;;;;;;4396391;28;655944;-67
2021/10/02 03:01:49;;;;;;;12.20;5.20;;;6.80;99.90;;;;;;4390338;28;655976;-67
2021/10/02 03:04:36;;;;;;;9.27;5.22;;;6.80;99.90;;;;;;4395285;28;656621;-67
2021/10/02 03:07:24;;;;;;;11.27;5.73;;;6.80;99.90;;;;;;4415342;28;655657;-68
2021/10/02 03:10:13;;;;;;;11.83;4.97;;;6.80;99.90;;;;;;4395727;28;657856;-66
2021/10/02 03:13:03;;;;;;;8.87;5.13;;;6.80;99.90;;;;;;4411146;28;656836;-67
2021/10/02 03:15:51;;;;;;;11.27;5.47;;;6.80;99.90;;;;;;4405537;28;655577;-68
2021/10/02 03:18:41;;;;;;;12.10;5.43;;;6.80;99.90;;;;;;4421149;28;656962;-66
2021/10/02 03:21:28;;;;;;;9.30;5.17;;;6.80;99.90;;;;;;4400218;28;657331;-67
2021/10/02 03:24:16;;;;;;;13.23;5.60;;;6.80;99.90;;;;;;4403819;28;655401;-67
2021/10/02 03:27:05;;;;;;;8.97;5.40;;;6.80;99.90;;;;;;4408065;28;657131;-67
2021/10/02 03:29:53;;;;;;;9.27;4.90;;;6.80;99.90;;;;;;4384099;28;655899;-67
2021/10/02 03:32:40;;;;;;;8.13;4.97;;;6.80;99.90;;;;;;4400948;28;655174;-67
2021/10/02 03:35:28;;;;;;;10.83;5.10;;;6.80;99.90;;;;;;4413223;28;655945;-67
2021/10/02 03:38:16;;;;;;;9.55;4.78;;;6.80;99.90;;;;;;4393266;28;656366;-67
2021/10/02 03:41:03;;;;;;;9.03;4.70;;;6.80;99.90;;;;;;4416621;28;656432;-67
2021/10/02 03:43:52;;;;;;;8.00;4.93;;;6.80;99.90;;;;;;4394853;28;656038;-68
2021/10/02 03:46:40;;;;;;;9.83;5.03;;;6.80;99.90;;;;;;4410394;28;655347;-67
2021/10/02 03:49:27;;;;;;;12.20;4.80;;;6.80;99.90;;;;;;4386343;28;656191;-67
2021/10/02 03:52:15;;;;;;;8.37;4.90;;;6.80;99.90;;;;;;4417850;28;657138;-67
2021/10/02 03:55:03;;;;;;;10.97;5.07;;;6.80;99.90;;;;;;4385684;28;656700;-67
2021/10/02 03:57:50;;;;;;;8.03;4.70;;;6.90;99.90;;;;;;4391300;28;656637;-68
2021/10/02 04:00:39;;;;;;;8.77;4.90;;;6.90;99.90;;;;;;4412742;28;656513;-67
2021/10/02 04:03:27;;;;;;;6.37;4.47;;;6.90;99.90;;;;;;4390025;28;656973;-67
2021/10/02 04:06:14;;;;;;;8.97;4.90;;;6.80;99.90;;;;;;4411702;28;656300;-67
2021/10/02 04:09:02;;;;;;;15.87;5.07;;;6.80;99.90;;;;;;4389742;28;656813;-67
2021/10/02 04:11:50;;;;;;;9.47;5.20;;;6.80;99.90;;;;;;4413499;28;656304;-68
2021/10/02 04:14:38;;;;;;;7.77;4.60;;;6.90;99.90;;;;;;4408234;28;656366;-66
2021/10/02 04:17:27;;;;;;;8.57;4.57;;;6.80;99.90;;;;;;4384889;28;655463;-68
2021/10/02 04:20:15;;;;;;;8.23;4.97;;;6.80;99.90;;;;;;4406921;28;657199;-68
2021/10/02 04:23:03;;;;;;;9.87;4.97;;;6.80;99.90;;;;;;4409731;28;655833;-67
2021/10/02 04:25:50;;;;;;;7.60;4.73;;;6.80;99.90;;;;;;4389475;28;655860;-68
2021/10/02 04:28:38;;;;;;;7.97;4.60;;;6.70;99.90;;;;;;4403359;28;656326;-67
2021/10/02 04:31:25;;;;;;;9.87;4.87;;;6.70;99.90;;;;;;4389051;28;655744;-67
2021/10/02 04:34:14;;;;;;;9.30;4.53;;;6.70;99.90;;;;;;4411573;28;655831;-67
2021/10/02 04:40:43;;;;;;;9.63;5.53;;;6.70;99.90;;;;;;4326277;28;656971;-67
2021/10/02 04:43:33;;;;;;;7.27;4.83;;;6.70;99.90;;;;;;4305856;28;655571;-68
2021/10/02 04:46:20;;;;;;;10.70;5.55;;;6.70;99.90;;;;;;4339755;28;655415;-68
2021/10/02 04:49:09;;;;;;;9.57;5.07;;;6.70;99.90;;;;;;4359434;28;656797;-67
2021/10/02 04:51:58;;;;;;;7.10;4.80;;;6.70;99.90;;;;;;4339241;28;655437;-67
2021/10/02 04:54:46;;;;;;;7.93;5.00;;;6.70;99.90;;;;;;4341316;28;655579;-67
2021/10/02 04:57:33;;;;;;;8.90;4.73;;;6.70;99.90;;;;;;4355841;28;656748;-67
2021/10/02 05:00:21;;;;;;;7.30;4.97;;;6.70;99.90;;;;;;4335886;28;655553;-67
2021/10/02 05:03:08;;;;;;;10.20;5.13;;;6.80;99.90;;;;;;4360393;28;655490;-67
2021/10/02 05:05:56;;;;;;;11.47;4.97;;;6.80;99.90;;;;;;4341186;28;656463;-68
2021/10/02 05:08:45;;;;;;;7.53;4.77;;;6.80;99.90;;;;;;4408694;28;657910;-67
2021/10/02 05:11:33;;;;;;;7.82;4.80;;;6.90;99.90;;;;;;4383705;28;656459;-67
2021/10/02 05:14:21;;;;;;;10.33;5.23;;;6.90;99.90;;;;;;4393051;28;656002;-68
2021/10/02 05:17:11;;;;;;;9.87;5.43;;;7.00;99.90;;;;;;4420792;28;656219;-67
2021/10/02 05:19:59;;;;;;;9.57;6.17;;;7.00;99.90;;;;;;4402368;28;655675;-67
2021/10/02 05:22:46;;;;;;;9.23;5.77;;;7.10;99.90;;;;;;4408132;28;656020;-67
2021/10/02 05:25:35;;;;;;;8.90;5.20;;;7.20;99.90;;;;;;4421012;28;655488;-67
2021/10/02 05:28:23;;;;;;;11.67;5.60;;;7.30;99.90;;;;;;4395172;28;656265;-67
2021/10/02 05:31:11;;;;;;;10.27;5.40;;;7.40;99.90;;;;;;4408430;28;657180;-68
2021/10/02 05:33:58;;;;;;;13.93;5.50;;;7.50;99.90;;;;;;4438607;28;657417;-67
2021/10/02 05:36:45;;;;;;;13.40;6.18;;;7.60;99.90;;;;;;4418954;28;656448;-68
2021/10/02 05:39:33;;;;;;;11.83;6.73;;;7.70;99.90;;;;;;4440343;28;656785;-67
2021/10/02 05:42:22;;;;;;;11.68;6.43;;;7.80;99.90;;;;;;4408939;28;656341;-67
2021/10/02 05:45:10;;;;;;;11.33;5.90;;;7.90;99.90;;;;;;4441207;28;656261;-67
2021/10/02 05:47:57;;;;;;;10.63;5.93;;;8.00;99.90;;;;;;4417827;28;658313;-68
2021/10/02 05:50:45;;;;;;;9.00;5.80;;;8.10;99.90;;;;;;4432465;28;656428;-68
2021/10/02 05:53:33;;;;;;;10.13;5.90;;;8.20;99.90;;;;;;4431205;28;656695;-67
2021/10/02 05:56:21;;;;;;;10.10;6.03;;;8.30;99.90;;;;;;4410033;28;656810;-68
2021/10/02 05:59:09;;;;;;;13.07;7.13;;;8.40;99.90;;;;;;4429859;28;656470;-68
2021/10/02 06:01:57;;;;;;;13.50;7.00;;;8.60;99.90;;;;;;4401606;28;657656;-68
2021/10/02 06:04:44;;;;;;;15.33;7.20;;;8.70;99.90;;;;;;4425898;28;656533;-67
2021/10/02 06:07:32;;;;;;;14.33;8.33;;;8.80;99.90;;;;;;4405673;28;657655;-67
2021/10/02 06:10:20;;;;;;;16.07;8.50;;;8.90;99.90;;;;;;4417794;28;657734;-68
2021/10/02 06:13:07;;;;;;;17.00;8.20;;;9.10;99.90;;;;;;4404319;28;657595;-68
2021/10/02 06:15:56;;;;;;;17.63;8.97;;;9.20;99.90;;;;;;4424155;28;657036;-68
2021/10/02 06:18:44;;;;;;;17.23;8.80;;;9.40;99.90;;;;;;4410860;28;657373;-68
2021/10/02 06:21:31;;;;;;;19.07;8.87;;;9.60;99.90;;;;;;4408799;28;656149;-67
2021/10/02 06:24:19;;;;;;;14.63;8.60;;;9.70;99.90;;;;;;4430982;28;656925;-67
2021/10/02 06:27:06;;;;;;;20.25;8.57;;;9.80;99.90;;;;;;4412464;28;656193;-68
2021/10/02 06:29:54;;;;;;;18.40;9.23;;;10.00;99.90;;;;;;4431341;28;656416;-67
2021/10/02 06:32:43;;;;;;;16.75;8.65;;;10.20;99.90;;;;;;4402739;28;657576;-68
2021/10/02 06:35:31;;;;;;;11.73;7.93;;;10.30;99.90;;;;;;4394762;28;657700;-67
2021/10/02 06:38:18;;;;;;;18.27;7.73;;;10.50;99.90;;;;;;4409710;28;657978;-67
2021/10/02 06:41:06;;;;;;;13.13;7.23;;;10.70;99.90;;;;;;4389202;28;657647;-67
2021/10/02 06:43:53;;;;;;;12.27;6.97;;;10.80;99.90;;;;;;4414967;28;658341;-67
2021/10/02 06:46:41;;;;;;;11.03;7.13;;;11.00;99.90;;;;;;4391244;28;657930;-66
2021/10/02 06:49:31;;;;;;;13.03;7.53;;;11.10;99.90;;;;;;4408610;28;658444;-67
2021/10/02 06:52:18;;;;;;;13.13;6.70;;;11.30;99.90;;;;;;4388449;28;657355;-67
2021/10/02 06:55:07;;;;;;;13.60;7.00;;;11.50;99.90;;;;;;4390012;28;657633;-67
2021/10/02 06:57:55;;;;;;;12.07;7.33;;;11.60;99.90;;;;;;4403213;28;658289;-67
2021/10/02 07:00:43;;;;;;;13.17;7.40;;;11.80;99.90;;;;;;4412528;28;658762;-67
2021/10/02 07:03:30;;;;;;;13.60;7.30;;;12.00;99.90;;;;;;4386557;28;657591;-67
2021/10/02 07:06:19;;;;;;;12.47;6.90;;;12.10;99.90;;;;;;4423924;28;661053;-67
2021/10/02 07:09:07;;;;;;;11.20;7.03;;;12.30;99.90;;;;;;4388153;28;658147;-66
2021/10/02 07:11:54;;;;;;;9.93;6.47;;;12.50;99.90;;;;;;4403166;28;657430;-67
2021/10/02 07:14:42;;;;;;;14.53;7.70;;;12.60;99.90;;;;;;4383974;28;657690;-66
2021/10/02 07:17:29;;;;;;;11.00;7.17;;;12.80;99.90;;;;;;4406062;28;657352;-67
2021/10/02 07:20:17;;;;;;;10.93;7.10;;;12.90;99.90;;;;;;4399558;28;659450;-67
2021/10/02 07:23:06;;;;;;;11.27;6.70;;;13.10;99.90;;;;;;4413834;28;657764;-67
2021/10/02 07:25:54;;;;;;;13.23;7.10;;;13.20;99.90;;;;;;4391404;28;657454;-66
2021/10/02 07:28:45;;;;;;;10.53;6.93;;;13.50;99.90;;;;;;4393760;28;657222;-67
2021/10/02 07:31:32;;;;;;;11.70;6.83;;;13.60;99.90;;;;;;4394409;28;657983;-67
2021/10/02 07:34:21;;;;;;;13.70;6.90;;;13.80;99.90;;;;;;4416715;28;658266;-67
2021/10/02 07:37:08;;;;;;;11.30;6.67;;;14.00;96.80;;;;;;4421396;28;658320;-67
2021/10/02 07:39:57;;;;;;;13.00;7.55;;;14.10;97.20;;;;;;4409372;28;657766;-67
2021/10/02 07:42:46;;;;;;;12.20;7.13;;;14.20;90.30;;;;;;4422105;28;657460;-67
2021/10/02 07:45:34;;;;;;;12.23;7.07;;;14.50;87.00;;;;;;4398180;28;657744;-66
2021/10/02 07:48:24;;;;;;;11.15;7.60;;;14.60;68.70;;;;;;4396381;28;657853;-67
2021/10/02 07:51:11;;;;;;;10.50;7.30;;;14.70;1.00;;;;;;4409121;28;657373;-67
2021/10/02 07:53:59;;;;;;;10.50;6.60;;;14.80;1.00;;;;;;4426281;28;656638;-66
2021/10/02 07:56:48;;;;;;;14.00;7.07;;;14.90;1.00;;;;;;4403222;28;656667;-67
2021/10/02 07:59:36;;;;;;;12.50;7.63;;;15.10;1.00;;;;;;4396080;28;656577;-67
2021/10/02 08:02:23;;;;;;;13.17;7.97;;;15.30;1.00;;;;;;4423819;28;657860;-66
2021/10/02 08:05:11;;;;;;;13.50;7.83;;;15.50;99.90;;;;;;4427051;28;656459;-67
2021/10/02 08:07:58;;;;;;;13.90;8.07;;;15.70;99.90;;;;;;4429992;28;658980;-67
2021/10/02 08:10:47;;;;;;;17.60;7.97;;;15.90;99.90;;;;;;4407838;28;657908;-67
2021/10/02 08:13:36;;;;;;;14.97;8.20;;;16.00;99.90;;;;;;4426675;28;657743;-67
2021/10/02 08:16:28;;;;;;;11.90;7.60;;;16.20;99.90;;;;;;4405256;28;658013;-67
2021/10/02 08:19:17;;;;;;;11.60;7.60;;;16.40;99.90;;;;;;4392802;28;657687;-66
2021/10/02 08:22:05;;;;;;;11.23;8.17;;;16.50;83.50;;;;;;4433828;28;658024;-66
2021/10/02 08:24:53;;;;;;;14.00;8.47;;;16.70;99.90;;;;;;4416185;28;658071;-66
2021/10/02 08:27:41;;;;;;;13.03;8.07;;;16.70;1.00;;;;;;4418068;28;658436;-66
2021/10/02 08:30:30;;;;;;;13.53;7.77;;;16.90;1.00;;;;;;4428623;28;657366;-66
2021/10/02 08:33:17;;;;;;;15.83;8.43;;;17.10;99.90;;;;;;4396166;28;658606;-66
2021/10/02 08:36:05;;;;;;;13.73;8.63;;;17.40;99.90;;;;;;4412528;28;659312;-66
2021/10/02 08:38:53;;;;;;;14.07;7.70;;;17.40;99.90;;;;;;4407714;28;657493;-66
2021/10/02 08:41:45;;;;;;;15.68;8.00;;;17.70;99.90;;;;;;4391773;28;658148;-67
2021/10/02 08:44:35;;;;;;;14.80;8.50;;;17.80;99.90;;;;;;4393565;28;658111;-66
2021/10/02 08:47:24;;;;;;;16.73;9.17;;;17.90;99.90;;;;;;4391686;28;658523;-67
2021/10/02 08:50:15;;;;;;;13.83;8.33;;;18.20;99.90;;;;;;4406177;28;658500;-67
2021/10/02 08:53:02;;;;;;;13.97;8.07;;;18.50;99.90;;;;;;4396958;28;658377;-67
2021/10/02 08:55:51;;;;;;;17.23;9.27;;;18.70;99.90;;;;;;4414574;28;657631;-66
2021/10/02 08:58:38;;;;;;;13.77;8.83;;;18.80;99.90;;;;;;4409210;28;657766;-66
2021/10/02 09:01:26;;;;;;;15.47;8.93;;;19.10;99.90;;;;;;4387790;28;657296;-67
2021/10/02 09:04:15;;;;;;;16.00;8.55;;;19.40;99.90;;;;;;4412415;28;657912;-66
2021/10/02 09:07:03;;;;;;;14.50;8.00;;;19.60;99.90;;;;;;4388198;28;659494;-67
2021/10/02 09:09:54;;;;;;;16.00;8.70;;;19.80;99.90;;;;;;4391830;28;657435;-67
2021/10/02 09:12:41;;;;;;;13.00;7.90;;;20.00;99.90;;;;;;4390061;28;657884;-66
2021/10/02 09:15:29;;;;;;;13.97;8.63;;;20.30;99.90;;;;;;4411416;28;658840;-67
2021/10/02 09:18:16;;;;;;;14.93;8.57;;;20.60;99.90;;;;;;4393278;28;657523;-67
2021/10/02 09:21:06;;;;;;;15.07;8.50;;;20.60;99.90;;;;;;4412036;28;657905;-67
2021/10/02 09:23:54;;;;;;;16.30;7.93;;;20.80;99.90;;;;;;4369485;28;657604;-66
2021/10/02 09:26:44;;;;;;;14.67;8.30;;;21.00;99.90;;;;;;4376062;28;657620;-67
2021/10/02 09:29:37;;;;;;;12.30;7.80;;;21.10;99.90;;;;;;4371733;28;658025;-67
2021/10/02 09:32:28;;;;;;;15.63;8.17;;;21.20;99.90;;;;;;4384830;28;658447;-67
2021/10/02 09:35:16;;;;;;;14.33;8.40;;;21.20;99.90;;;;;;4414966;28;657365;-67
2021/10/02 09:38:05;;;;;;;18.93;9.03;;;20.70;99.90;;;;;;4450794;28;658557;-67
2021/10/02 09:40:54;;;;;;;12.03;8.40;;;20.80;99.90;;;;;;4423524;28;658668;-67
2021/10/02 09:43:47;;;;;;;16.00;8.83;;;20.60;99.90;;;;;;4428067;28;658144;-67
2021/10/02 09:46:35;;;;;;;15.80;8.77;;;20.20;99.90;;;;;;4426680;28;657944;-67
2021/10/02 09:49:23;;;;;;;18.13;9.13;;;20.30;99.90;;;;;;4431044;28;658870;-67
2021/10/02 09:52:26;;;;;;;15.50;9.30;;;20.30;99.90;;;;;;4414052;28;657660;-66
2021/10/02 09:55:22;;;;;;;14.37;8.73;;;20.20;99.90;;;;;;4406778;28;658192;-66
2021/10/02 09:58:11;;;;;;;14.43;9.10;;;20.30;99.90;;;;;;4413050;28;657588;-66
2021/10/02 10:01:04;;;;;;;15.80;9.27;;;20.40;99.90;;;;;;4427316;28;658807;-66
2021/10/02 10:03:51;;;;;;;17.90;9.53;;;20.40;99.90;;;;;;4431052;28;657823;-66
2021/10/02 10:06:39;;;;;;;14.73;8.90;;;20.10;99.90;;;;;;4435923;28;657967;-66
2021/10/02 10:09:27;;;;;;;18.87;9.70;;;20.30;99.90;;;;;;4413929;28;658379;-66
2021/10/02 10:12:19;;;;;;;13.93;9.53;;;20.30;99.90;;;;;;4445203;28;658568;-66
2021/10/02 10:15:07;;;;;;;17.50;9.33;;;20.50;99.90;;;;;;4408089;28;658293;-67
2021/10/02 10:17:55;;;;;;;16.63;9.30;;;20.80;99.90;;;;;;4446861;28;657268;-67
2021/10/02 10:20:49;;;;;;;17.77;9.10;;;20.80;99.90;;;;;;4448793;28;659457;-66
2021/10/02 10:23:37;;;;;;;18.33;9.47;;;21.00;99.90;;;;;;4403383;28;658631;-67
2021/10/02 10:26:26;;;;;;;15.50;9.47;;;21.00;99.90;;;;;;4443850;28;657871;-66
2021/10/02 10:29:15;;;;;;;16.17;8.90;;;20.70;99.90;;;;;;4442439;28;658883;-66
2021/10/02 10:32:02;;;;;;;16.10;8.27;;;20.60;99.90;;;;;;4408811;28;658632;-67
2021/10/02 10:34:51;;;;;;;14.47;8.37;;;20.50;99.90;;;;;;4428153;28;657729;-67
2021/10/02 10:37:38;;;;;;;16.77;8.57;;;20.30;99.90;;;;;;4434825;28;658252;-66
2021/10/02 10:40:26;;;;;;;12.77;8.67;;;20.20;99.90;;;;;;4409654;28;658087;-66
2021/10/02 10:43:14;;;;;;;14.73;8.63;;;20.80;99.90;;;;;;4425523;28;658817;-66
2021/10/02 10:46:05;;;;;;;13.93;8.77;;;21.00;99.90;;;;;;4411234;28;657369;-66
2021/10/02 10:48:53;;;;;;;15.53;9.00;;;21.30;99.90;;;;;;4410070;28;658645;-65
2021/10/02 10:51:42;;;;;;;16.83;8.67;;;21.10;99.90;;;;;;4422805;28;657747;-67
2021/10/02 10:54:32;;;;;;;13.63;9.20;;;21.50;99.90;;;;;;4437112;28;657286;-66
2021/10/02 10:57:36;;;;;;;13.90;8.23;;;21.60;99.90;;;;;;4429099;28;657536;-67
2021/10/02 11:00:41;;;;;;;14.63;9.40;;;21.60;99.90;;;;;;4407494;28;658600;-66
2021/10/02 11:03:40;;;;;;;14.70;8.93;;;21.60;99.90;;;;;;4422287;28;658518;-66
2021/10/02 11:06:50;;;;;;;18.47;8.67;;;22.10;99.90;;;;;;4385108;28;658212;-66
2021/10/02 11:09:38;;;;;;;14.73;8.73;;;22.20;99.90;;;;;;4386719;28;657771;-66
2021/10/02 11:12:26;;;;;;;15.73;7.50;;;22.10;99.90;;;;;;4413373;28;657571;-66
2021/10/02 11:15:17;;;;;;;13.83;7.93;;;22.10;99.40;;;;;;4431698;28;658076;-66
2021/10/02 11:18:04;;;;;;;16.00;8.20;;;22.10;98.90;;;;;;4406896;28;657765;-66
2021/10/02 11:21:02;;;;;;;16.67;8.23;;;22.80;98.20;;;;;;4414008;28;657658;-66
2021/10/02 11:24:20;;;;;;;10.60;7.17;;;22.80;96.40;;;;;;4420184;28;659201;-67
2021/10/02 11:27:08;;;;;;;15.60;9.00;;;21.70;96.50;;;;;;4383462;28;657812;-66
2021/10/02 11:29:55;;;;;;;14.20;7.77;;;21.60;98.10;;;;;;4415932;28;657714;-66
2021/10/02 11:32:43;;;;;;;13.53;7.40;;;21.60;97.50;;;;;;4433359;28;659273;-66
2021/10/02 11:35:34;;;;;;;12.37;7.83;;;21.60;97.30;;;;;;4413676;28;657442;-66
2021/10/02 11:38:36;;;;;;;13.20;7.73;;;21.90;98.20;;;;;;4408914;28;657489;-66
2021/10/02 11:41:23;;;;;;;17.07;8.40;;;22.40;98.10;;;;;;4400947;28;657847;-65
2021/10/02 11:44:11;;;;;;;12.27;8.10;;;22.60;94.70;;;;;;4403175;28;657996;-66
2021/10/02 11:47:32;;;;;;;13.53;7.93;;;22.40;93.50;;;;;;4425222;28;659587;-66
2021/10/02 11:50:32;;;;;;;13.17;8.40;;;22.20;96.80;;;;;;4401100;28;657505;-66
2021/10/02 11:53:23;;;;;;;17.93;8.27;;;21.80;95.50;;;;;;4400082;28;657707;-66
2021/10/02 11:56:18;;;;;;;16.53;8.40;;;22.20;95.50;;;;;;4385564;28;658536;-66
2021/10/02 11:59:06;;;;;;;14.10;8.00;;;23.30;97.00;;;;;;4377578;28;658621;-66
2021/10/02 12:01:54;;;;;;;15.37;8.60;;;23.70;94.30;;;;;;4416968;28;657902;-66
2021/10/02 12:04:42;;;;;;;12.60;8.33;;;24.00;94.30;;;;;;4410686;28;657422;-66
2021/10/02 12:07:31;;;;;;;15.90;7.93;;;23.30;93.40;;;;;;4426879;28;657793;-66
2021/10/02 12:10:18;;;;;;;12.90;8.10;;;23.40;92.90;;;;;;4400667;28;658407;-66
2021/10/02 12:13:23;;;;;;;12.37;7.47;;;23.70;93.60;;;;;;4418601;28;657670;-66
2021/10/02 12:16:12;;;;;;;11.07;7.30;;;23.70;91.50;;;;;;4380622;28;658812;-66
2021/10/02 12:19:05;;;;;;;10.93;7.83;;;23.40;90.10;;;;;;4429051;28;657848;-66
2021/10/02 12:21:55;;;;;;;14.75;8.02;;;23.60;91.90;;;;;;4382493;28;658230;-66
2021/10/02 12:24:42;;;;;;;9.47;6.67;;;23.60;89.50;;;;;;4409746;28;659327;-66
2021/10/02 12:27:31;;;;;;;11.20;7.53;;;23.60;86.80;;;;;;4430343;28;656789;-66
2021/10/02 12:30:20;;;;;;;14.97;7.70;;;23.60;91.30;;;;;;4429116;28;658250;-66
2021/10/02 12:33:07;;;;;;;11.97;8.03;;;23.90;89.60;;;;;;4400173;28;658874;-66
2021/10/02 12:35:55;;;;;;;14.10;7.60;;;23.50;87.60;;;;;;4432322;28;657585;-66
2021/10/02 12:38:44;;;;;;;14.93;7.53;;;23.60;88.20;;;;;;4410183;28;659201;-66
2021/10/02 12:41:41;;;;;;;13.60;7.27;;;24.00;88.30;;;;;;4412973;28;657487;-66
2021/10/02 12:44:30;;;;;;;13.18;7.68;;;24.60;85.30;;;;;;4406497;28;657769;-66
2021/10/02 12:47:21;;;;;;;17.45;7.28;;;25.20;88.30;;;;;;4408931;28;659823;-66
2021/10/02 12:50:10;;;;;;;12.77;7.97;;;25.40;81.20;;;;;;4408114;28;658396;-66
2021/10/02 12:52:58;;;;;;;16.42;7.70;;;25.30;86.10;;;;;;4413204;28;657918;-66
2021/10/02 12:55:46;;;;;;;13.57;6.70;;;25.40;85.70;;;;;;4412784;28;657564;-66
2021/10/02 12:58:35;;;;;;;13.43;7.22;;;24.40;80.20;;;;;;4434449;28;658821;-66
2021/10/02 13:01:23;;;;;;;14.23;7.07;;;23.90;83.60;;;;;;4414744;28;658562;-65
2021/10/02 13:04:16;;;;;;;16.67;7.50;;;23.50;81.90;;;;;;4407636;28;657496;-66
2021/10/02 13:07:04;;;;;;;11.73;7.53;;;23.30;85.10;;;;;;4402666;28;657809;-67
2021/10/02 13:10:00;;;;;;;13.63;7.67;;;23.70;82.90;;;;;;4408754;28;657822;-65
2021/10/02 13:12:48;;;;;;;13.30;7.30;;;23.80;83.20;;;;;;4368234;28;659260;-66
2021/10/02 13:15:37;;;;;;;13.07;8.07;;;24.20;85.60;;;;;;4409045;28;657634;-65
2021/10/02 13:18:25;;;;;;;11.52;7.55;;;24.50;83.40;;;;;;4425811;28;657458;-65
2021/10/02 13:21:18;;;;;;;13.27;7.43;;;25.00;82.20;;;;;;4410210;28;658065;-65
2021/10/02 13:24:09;;;;;;;10.10;6.70;;;25.10;82.90;;;;;;4402475;28;658289;-66
2021/10/02 13:27:01;;;;;;;13.90;7.40;;;24.50;77.90;;;;;;4412546;28;657665;-65
2021/10/02 13:29:49;;;;;;;15.53;7.00;;;24.20;81.00;;;;;;4406672;28;658267;-66
2021/10/02 13:32:37;;;;;;;17.15;8.30;;;24.60;81.80;;;;;;4410025;28;657544;-65
2021/10/02 13:35:24;;;;;;;11.67;7.73;;;24.30;79.10;;;;;;4433521;28;657813;-66
2021/10/02 13:38:14;;;;;;;11.93;7.10;;;25.50;81.00;;;;;;4411855;28;657756;-66
2021/10/02 13:41:02;;;;;;;14.00;7.70;;;24.90;75.40;;;;;;4411150;28;657615;-66
2021/10/02 13:43:53;;;;;;;10.83;7.03;;;23.80;77.90;;;;;;4425795;28;657549;-65
2021/10/02 13:46:42;;;;;;;17.63;7.30;;;22.80;80.80;;;;;;4391564;28;657685;-66
2021/10/02 13:49:30;;;;;;;12.00;8.57;;;21.90;84.20;;;;;;4431860;28;659770;-65
2021/10/02 13:52:18;;;;;;;12.53;7.97;;;21.50;85.80;;;;;;4401939;28;658564;-65
2021/10/02 13:55:07;;;;;;;12.13;7.27;;;21.80;86.70;;;;;;4413079;28;657797;-66
2021/10/02 13:57:56;;;;;;;10.93;7.10;;;22.20;87.10;;;;;;4422945;28;657695;-66
2021/10/02 14:00:44;;;;;;;9.17;7.33;;;22.90;81.80;;;;;;4427192;28;657311;-66
2021/10/02 14:03:31;;;;;;;13.23;7.77;;;23.40;81.00;;;;;;4409963;28;656863;-66
2021/10/02 14:06:19;;;;;;;14.27;7.47;;;23.50;81.10;;;;;;4431931;28;658236;-65
2021/10/02 14:09:07;;;;;;;10.90;6.70;;;24.00;82.40;;;;;;4406903;28;657304;-65
2021/10/02 14:11:56;;;;;;;11.97;6.50;;;24.60;81.00;;;;;;4427072;28;658633;-65
2021/10/02 14:14:43;;;;;;;16.47;7.00;;;25.80;77.00;;;;;;4406111;28;657829;-66
2021/10/02 14:17:31;;;;;;;11.47;6.30;;;28.20;73.50;;;;;;4411047;28;657430;-66
2021/10/02 14:20:18;;;;;;;17.02;6.68;;;29.70;65.00;;;;;;4434790;28;658392;-66
2021/10/02 14:23:06;;;;;;;11.70;6.45;;;31.30;61.10;;;;;;4407598;28;658010;-66
2021/10/02 14:25:54;;;;;;;17.35;6.50;;;32.30;57.30;;;;;;4431480;28;659012;-67
2021/10/02 14:28:42;;;;;;;11.95;5.97;;;33.40;55.30;;;;;;4413532;28;657508;-67
2021/10/02 14:31:31;;;;;;;9.20;6.20;;;33.70;52.50;;;;;;4422690;28;657623;-66
2021/10/02 14:34:18;;;;;;;11.25;6.10;;;34.10;52.10;;;;;;4429087;28;656713;-66
2021/10/02 14:37:06;;;;;;;9.73;5.82;;;34.10;51.90;;;;;;4415601;28;657835;-66
2021/10/02 14:39:54;;;;;;;11.85;6.38;;;34.30;49.40;;;;;;4438321;28;658251;-66
2021/10/02 14:42:42;;;;;;;14.63;6.18;;;33.80;49.90;;;;;;4396156;28;657205;-66
2021/10/02 14:45:31;;;;;;;9.80;6.00;;;33.10;49.80;;;;;;4424171;28;658454;-65
2021/10/02 14:48:18;;;;;;;10.75;6.05;;;33.40;49.60;;;;;;4404493;28;656652;-65
2021/10/02 14:51:06;;;;;;;10.65;6.20;;;32.50;49.70;;;;;;4404331;28;657610;-66
2021/10/02 14:53:54;;;;;;;10.07;6.25;;;32.90;50.50;;;;;;4433422;28;657555;-66
2021/10/02 14:56:42;;;;;;;9.77;6.40;;;33.00;49.30;;;;;;4412492;28;657905;-66
2021/10/02 14:59:29;;;;;;;15.40;6.22;;;33.10;49.70;;;;;;4434610;28;656378;-66
2021/10/02 15:02:18;;;;;;;10.70;5.55;;;33.30;50.40;;;;;;4412710;28;658709;-66
2021/10/02 15:05:07;;;;;;;10.65;6.82;;;32.80;49.10;;;;;;4415652;28;658101;-66
2021/10/02 15:07:55;;;;;;;12.45;5.75;;;32.40;49.30;;;;;;4430740;28;657983;-66
2021/10/02 15:10:43;;;;;;;11.45;5.95;;;32.10;52.00;;;;;;4413114;28;659332;-66
2021/10/02 15:13:31;;;;;;;10.40;6.25;;;32.10;52.20;;;;;;4415951;28;657690;-66
2021/10/02 15:16:20;;;;;;;14.15;6.40;;;32.50;50.90;;;;;;4429253;28;658130;-66